Terminal Aerodrome Forecast
Issued by NWS

Home | Current Version | Previous Version | Text Only | Print | Product List | Glossary On
Versions: 1 2 3 4 5 6 7 8 9 10 11 12 13 14 15 16 17 18 19 20 21 22 23 24 25 26 27 28 29 30 31 32 33 34 35 36 37
000
FTUS43 KGRB 291700
TAFRHI
TAF
KRHI 291725Z 2918/3018 31009KT P6SM VCSH SCT035 BKN050
      TEMPO 2918/2922 5SM -TSRA BKN035CB
     FM300400 33003KT P6SM SCT006 SCT060
     FM300700 VRB02KT 4SM BR SCT006 SCT060
      TEMPO 3007/3011 1 1/2SM BR BKN004
     FM301100 28006KT P6SM SCT100=

USA.gov is the U.S. government's official web portal to all federal, state and local government web resources and services.